Time;durP1;ratioP1;P1;durP2;ratioP2;P2;SDS_P1;SDS_P2;PMS_P1;PMS_P2;Temp;Humidity;BMP_temperature;BMP_pressure;BME280_temperature;BME280_humidity;BME280_pressure;Samples;Min_cycle;Max_cycle;Signal;HPM_P1;HPM_P2
2022/03/27 00:01:15;;;;;;;2.38;2.08;;;16.20;48.20;;;;;;5095872;28;20402;-70
2022/03/27 00:03:41;;;;;;;3.33;2.03;;;16.20;48.10;;;;;;5113897;28;20048;-69
2022/03/27 00:06:07;;;;;;;2.88;1.80;;;16.20;48.10;;;;;;5113771;28;20043;-69
2022/03/27 00:08:32;;;;;;;2.95;2.45;;;16.20;48.10;;;;;;5095874;28;20112;-67
2022/03/27 00:11:29;;;;;;;2.85;2.50;;;16.20;48.00;;;;;;5113682;28;20035;-69
2022/03/27 00:13:44;;;;;;;3.10;2.20;;;16.20;48.10;;;;;;5095597;28;20074;-69
2022/03/27 00:16:10;;;;;;;3.30;2.17;;;16.20;48.00;;;;;;5095467;28;20044;-69
2022/03/27 00:18:36;;;;;;;2.92;2.33;;;16.20;48.00;;;;;;5095523;28;20424;-66
2022/03/27 00:21:04;;;;;;;2.90;2.28;;;16.20;48.00;;;;;;5094684;28;20043;-69
2022/03/27 00:23:29;;;;;;;3.28;2.70;;;16.20;48.00;;;;;;5095236;28;20047;-65
2022/03/27 00:25:55;;;;;;;4.85;2.95;;;16.20;48.00;;;;;;5095100;28;20050;-70
2022/03/27 00:28:21;;;;;;;3.65;2.40;;;16.20;48.00;;;;;;5095345;28;20043;-70
2022/03/27 00:30:46;;;;;;;4.18;2.85;;;16.20;48.00;;;;;;5095090;28;20514;-66
2022/03/27 00:33:12;;;;;;;3.47;2.50;;;16.20;48.00;;;;;;5113272;28;20035;-70
2022/03/27 00:35:38;;;;;;;3.75;2.60;;;16.20;48.00;;;;;;5094882;28;20048;-70
2022/03/27 00:38:04;;;;;;;2.90;2.30;;;16.10;47.90;;;;;;5094858;28;20047;-70
2022/03/27 00:40:30;;;;;;;4.35;3.42;;;16.10;48.00;;;;;;5094499;28;20092;-69
2022/03/27 00:42:58;;;;;;;3.75;2.80;;;16.10;48.00;;;;;;5113176;28;20047;-69
2022/03/27 00:45:24;;;;;;;3.88;2.60;;;16.10;47.90;;;;;;5094811;28;20048;-66
2022/03/27 00:47:50;;;;;;;3.75;2.67;;;16.10;48.00;;;;;;5095071;28;20051;-68
2022/03/27 00:50:16;;;;;;;3.85;2.83;;;16.10;47.90;;;;;;5112947;28;20046;-69
2022/03/27 00:52:41;;;;;;;3.38;2.67;;;16.00;47.90;;;;;;5094826;28;20036;-66
2022/03/27 00:55:07;;;;;;;4.38;3.20;;;16.10;47.90;;;;;;5094584;28;20046;-66
2022/03/27 00:57:33;;;;;;;4.53;3.20;;;16.00;47.80;;;;;;5094669;28;20042;-69
2022/03/27 00:59:58;;;;;;;3.88;3.08;;;16.00;47.90;;;;;;5094627;28;20040;-66
2022/03/27 01:02:25;;;;;;;4.90;3.40;;;16.00;47.90;;;;;;5094820;28;20112;-68
2022/03/27 01:04:56;;;;;;;4.93;3.40;;;16.00;47.90;;;;;;5094505;28;20044;-69
2022/03/27 01:07:22;;;;;;;4.40;3.05;;;16.00;47.90;;;;;;5094743;28;20039;-69
2022/03/27 01:09:48;;;;;;;4.13;3.33;;;16.00;47.90;;;;;;5094410;28;20407;-69
2022/03/27 01:14:59;;;;;;;3.95;3.47;;;16.00;47.90;;;;;;5144828;27;1391470;-67
2022/03/27 01:17:26;;;;;;;4.38;2.65;;;15.90;47.90;;;;;;5152932;27;20045;-70
2022/03/27 01:19:55;;;;;;;5.07;3.60;;;15.90;47.90;;;;;;5153197;27;20614;-68
2022/03/27 01:22:21;;;;;;;4.07;2.58;;;15.90;47.90;;;;;;5153010;27;20086;-66
2022/03/27 01:24:50;;;;;;;3.55;2.90;;;15.90;47.80;;;;;;5153317;27;20141;-70
2022/03/27 01:27:16;;;;;;;4.88;2.80;;;15.90;47.90;;;;;;5152873;27;20031;-70
2022/03/27 01:29:42;;;;;;;3.88;2.95;;;15.90;47.90;;;;;;5171588;27;20039;-72
2022/03/27 01:32:14;;;;;;;4.15;2.70;;;15.90;47.80;;;;;;5152730;27;20042;-70
2022/03/27 01:34:40;;;;;;;3.80;3.03;;;15.90;47.80;;;;;;5152861;27;20080;-68
2022/03/27 01:37:11;;;;;;;2.83;2.40;;;15.90;47.80;;;;;;5152970;27;20095;-70
2022/03/27 01:39:38;;;;;;;4.38;2.95;;;15.90;47.80;;;;;;5152688;27;20069;-66
2022/03/27 01:42:05;;;;;;;3.92;3.33;;;15.90;47.80;;;;;;5152541;27;20038;-70
2022/03/27 01:44:31;;;;;;;3.03;2.17;;;15.80;47.80;;;;;;5171301;27;20034;-69
2022/03/27 01:46:57;;;;;;;3.53;3.10;;;15.90;47.80;;;;;;5152426;27;20051;-70
2022/03/27 01:49:24;;;;;;;4.07;3.20;;;15.80;47.70;;;;;;5170573;27;20045;-70
2022/03/27 01:51:50;;;;;;;3.33;3.03;;;15.80;47.70;;;;;;5152519;27;20030;-69
2022/03/27 01:54:19;;;;;;;3.15;2.60;;;15.80;47.70;;;;;;5152414;27;20038;-70
2022/03/27 01:56:45;;;;;;;3.45;2.40;;;15.80;47.70;;;;;;5152267;27;20046;-70
2022/03/27 01:59:11;;;;;;;3.53;2.92;;;15.80;47.70;;;;;;5152604;27;20034;-70
2022/03/27 02:01:38;;;;;;;3.20;2.60;;;15.80;47.70;;;;;;5152486;27;20409;-67
2022/03/27 02:04:04;;;;;;;3.67;2.35;;;15.70;47.60;;;;;;5171017;27;20117;-70
2022/03/27 02:06:30;;;;;;;3.10;2.67;;;15.80;47.70;;;;;;5152214;27;20550;-67
2022/03/27 02:08:59;;;;;;;3.20;2.17;;;15.70;47.70;;;;;;5152115;27;20038;-67
2022/03/27 02:11:25;;;;;;;2.72;2.30;;;15.70;47.60;;;;;;5152234;27;20466;-66
2022/03/27 02:13:51;;;;;;;4.25;2.83;;;15.70;47.60;;;;;;5170429;27;20118;-69
2022/03/27 02:16:17;;;;;;;3.08;2.55;;;15.70;47.60;;;;;;5152115;27;20482;-69
2022/03/27 02:18:43;;;;;;;3.20;2.90;;;15.70;47.60;;;;;;5152265;27;20081;-68
2022/03/27 02:21:09;;;;;;;4.07;2.88;;;15.70;47.70;;;;;;5151578;27;20505;-70
2022/03/27 02:23:35;;;;;;;3.40;2.47;;;15.70;47.60;;;;;;5151749;27;20619;-69
2022/03/27 02:26:01;;;;;;;3.00;2.17;;;15.70;47.60;;;;;;5139758;27;20045;-69
2022/03/27 02:28:27;;;;;;;3.50;2.38;;;15.70;47.60;;;;;;5138096;27;20039;-66
2022/03/27 02:30:53;;;;;;;2.75;2.25;;;15.70;47.60;;;;;;5156465;27;20081;-69
2022/03/27 02:33:19;;;;;;;3.47;2.10;;;15.70;47.60;;;;;;5138021;27;20386;-66
2022/03/27 02:35:45;;;;;;;2.60;2.33;;;15.60;47.50;;;;;;5138054;27;20080;-69
2022/03/27 02:38:12;;;;;;;3.00;2.20;;;15.70;47.60;;;;;;5156528;27;20054;-69
2022/03/27 02:40:39;;;;;;;2.78;2.20;;;15.60;47.50;;;;;;5137692;27;20106;-68
2022/03/27 02:43:05;;;;;;;2.97;2.03;;;15.60;47.50;;;;;;5156375;27;20367;-66
2022/03/27 02:45:32;;;;;;;2.78;2.35;;;15.60;47.50;;;;;;5156127;27;20390;-66
2022/03/27 02:47:58;;;;;;;2.35;1.98;;;15.60;47.50;;;;;;5137616;27;20053;-69
2022/03/27 02:50:26;;;;;;;3.00;2.63;;;15.60;47.50;;;;;;5156066;27;20042;-66
2022/03/27 02:52:52;;;;;;;3.08;2.78;;;15.60;47.50;;;;;;5137407;27;20574;-69
2022/03/27 02:55:19;;;;;;;3.67;2.40;;;15.50;47.40;;;;;;5137634;27;20382;-66
2022/03/27 02:57:45;;;;;;;4.63;2.42;;;15.60;47.50;;;;;;5137445;27;20042;-66
2022/03/27 03:00:12;;;;;;;3.30;2.58;;;15.50;47.50;;;;;;5137253;27;20478;-66
2022/03/27 03:02:37;;;;;;;2.67;2.22;;;15.50;47.50;;;;;;5137270;27;20046;-69
2022/03/27 03:05:04;;;;;;;2.85;2.17;;;15.50;47.50;;;;;;5137100;27;20084;-67
2022/03/27 03:07:30;;;;;;;2.78;2.13;;;15.50;47.50;;;;;;5137239;27;20078;-66
2022/03/27 03:09:56;;;;;;;2.92;2.55;;;15.50;47.50;;;;;;5155698;27;20068;-66
2022/03/27 03:12:22;;;;;;;3.42;2.60;;;15.50;47.40;;;;;;5137141;27;20039;-66
2022/03/27 03:14:55;;;;;;;4.68;2.65;;;15.50;47.40;;;;;;5119687;27;20142;-68
2022/03/27 03:17:21;;;;;;;2.55;1.92;;;15.50;47.40;;;;;;5155559;27;20110;-69
2022/03/27 03:19:47;;;;;;;2.50;2.28;;;15.40;47.30;;;;;;5136946;27;20042;-69
2022/03/27 03:22:13;;;;;;;2.70;2.35;;;15.50;47.40;;;;;;5136929;27;20125;-69
2022/03/27 03:24:38;;;;;;;3.10;2.53;;;15.50;47.40;;;;;;5137166;27;20043;-69
2022/03/27 03:27:04;;;;;;;3.10;2.42;;;15.50;47.40;;;;;;5155320;27;20397;-69
2022/03/27 03:29:30;;;;;;;3.47;2.15;;;15.40;47.30;;;;;;5137019;27;20066;-69
2022/03/27 03:31:55;;;;;;;3.63;2.50;;;15.40;47.30;;;;;;5155179;27;20087;-69
2022/03/27 03:34:21;;;;;;;3.30;2.38;;;15.40;47.30;;;;;;5136581;27;20066;-69
2022/03/27 03:36:47;;;;;;;2.72;2.20;;;15.40;47.30;;;;;;5135656;27;20076;-67
2022/03/27 03:39:13;;;;;;;2.22;2.00;;;15.40;47.30;;;;;;5136558;27;20113;-69
2022/03/27 03:41:38;;;;;;;2.80;2.10;;;15.40;47.30;;;;;;5136737;27;20043;-66
2022/03/27 03:44:04;;;;;;;2.78;2.25;;;15.30;47.20;;;;;;5136727;27;20529;-69
2022/03/27 03:46:30;;;;;;;3.15;2.20;;;15.40;47.30;;;;;;5132526;27;20566;-69
2022/03/27 03:48:56;;;;;;;2.42;2.10;;;15.40;47.30;;;;;;5116134;27;20386;-69
2022/03/27 03:51:21;;;;;;;2.95;2.15;;;15.30;47.30;;;;;;5116026;27;20437;-69
2022/03/27 03:53:47;;;;;;;2.45;1.95;;;15.30;47.30;;;;;;5115627;27;20122;-69
2022/03/27 03:56:13;;;;;;;2.60;2.35;;;15.30;47.30;;;;;;5115624;27;20035;-69
2022/03/27 03:58:38;;;;;;;2.20;1.70;;;15.30;47.30;;;;;;5115549;27;20039;-69
2022/03/27 04:01:04;;;;;;;2.42;2.08;;;15.30;47.20;;;;;;5115748;27;20039;-69
2022/03/27 04:03:30;;;;;;;2.08;1.88;;;15.30;47.30;;;;;;5115465;27;20069;-69
2022/03/27 04:05:56;;;;;;;3.45;2.30;;;15.30;47.30;;;;;;5115504;27;20569;-69
2022/03/27 04:08:22;;;;;;;2.75;1.90;;;15.20;47.20;;;;;;5133841;27;20122;-68
2022/03/27 04:10:47;;;;;;;2.78;1.92;;;15.20;47.20;;;;;;5133963;27;20429;-69
2022/03/27 04:13:13;;;;;;;2.58;1.73;;;15.20;47.20;;;;;;5115154;27;20443;-67
2022/03/27 04:15:39;;;;;;;3.58;2.10;;;15.20;47.20;;;;;;5115241;27;20436;-69
2022/03/27 04:18:06;;;;;;;2.90;2.58;;;15.20;47.20;;;;;;5114996;27;20031;-70
2022/03/27 04:20:32;;;;;;;2.28;1.67;;;15.20;47.10;;;;;;5115518;27;20119;-69
2022/03/27 04:22:57;;;;;;;2.10;1.85;;;15.20;47.10;;;;;;5115385;28;20451;-69
2022/03/27 04:25:23;;;;;;;2.97;2.40;;;15.20;47.10;;;;;;5115218;27;20512;-69
2022/03/27 04:27:49;;;;;;;2.67;2.47;;;15.10;47.10;;;;;;5115002;27;20095;-68
2022/03/27 04:30:14;;;;;;;2.30;2.05;;;15.20;47.10;;;;;;5133463;27;20039;-69
2022/03/27 04:32:40;;;;;;;4.45;1.60;;;15.10;47.10;;;;;;5114758;27;20043;-66
2022/03/27 04:35:08;;;;;;;2.70;1.95;;;15.20;47.10;;;;;;5133423;27;20035;-69
2022/03/27 04:37:42;;;;;;;2.30;1.70;;;15.10;47.10;;;;;;5115137;27;20050;-69
2022/03/27 04:40:10;;;;;;;3.33;2.10;;;15.10;47.10;;;;;;5115167;27;20043;-69
2022/03/27 04:42:36;;;;;;;2.83;2.08;;;15.10;47.00;;;;;;5114812;27;20468;-69
2022/03/27 04:45:02;;;;;;;3.03;1.92;;;15.10;47.10;;;;;;5133260;27;20034;-68
2022/03/27 04:47:28;;;;;;;3.35;2.08;;;15.10;47.10;;;;;;5114493;27;20096;-69
2022/03/27 04:49:57;;;;;;;3.03;1.95;;;15.10;47.00;;;;;;5133115;27;20067;-69
2022/03/27 04:52:22;;;;;;;4.47;1.80;;;15.00;47.00;;;;;;5114693;27;20088;-68
2022/03/27 04:54:48;;;;;;;2.80;1.98;;;15.10;47.00;;;;;;5132983;27;20039;-69
2022/03/27 04:57:15;;;;;;;2.85;1.95;;;15.00;47.00;;;;;;5114706;27;20031;-69
2022/03/27 04:59:40;;;;;;;2.72;2.28;;;15.10;47.00;;;;;;5114907;27;20046;-70
2022/03/27 05:02:06;;;;;;;2.42;1.90;;;15.00;47.00;;;;;;5114479;27;20411;-69
2022/03/27 05:04:32;;;;;;;2.47;1.92;;;15.00;47.00;;;;;;5115711;28;20035;-69
2022/03/27 05:06:57;;;;;;;3.35;2.20;;;15.00;47.00;;;;;;5116133;27;20130;-69
2022/03/27 05:09:23;;;;;;;2.15;1.67;;;15.00;46.90;;;;;;5114493;28;20394;-69
2022/03/27 05:11:52;;;;;;;4.05;2.30;;;15.00;46.90;;;;;;5114835;28;20120;-66
2022/03/27 05:14:17;;;;;;;3.92;2.20;;;15.00;46.90;;;;;;5115659;28;20059;-69
2022/03/27 05:16:44;;;;;;;2.78;2.28;;;15.00;46.90;;;;;;5115935;28;20521;-68
2022/03/27 05:19:09;;;;;;;2.17;1.92;;;15.00;46.90;;;;;;5115239;28;20099;-69
2022/03/27 05:21:36;;;;;;;3.28;1.90;;;15.00;46.90;;;;;;5114473;28;20035;-69
2022/03/27 05:24:02;;;;;;;3.35;2.25;;;15.00;46.90;;;;;;5114299;28;20062;-70
2022/03/27 05:26:27;;;;;;;3.78;2.45;;;15.00;46.90;;;;;;5114519;28;20046;-66
2022/03/27 05:28:54;;;;;;;3.65;2.40;;;14.90;46.80;;;;;;5114303;28;20376;-67
2022/03/27 05:31:20;;;;;;;3.13;2.50;;;14.90;46.80;;;;;;5114286;28;20043;-69
2022/03/27 05:33:46;;;;;;;2.08;1.88;;;14.90;46.80;;;;;;5114208;28;20043;-69
2022/03/27 05:36:13;;;;;;;2.50;1.88;;;14.90;46.80;;;;;;5132778;28;20125;-68
2022/03/27 05:38:40;;;;;;;3.53;2.00;;;14.90;46.80;;;;;;5132681;28;20039;-68
2022/03/27 05:41:10;;;;;;;3.22;1.83;;;14.90;46.80;;;;;;5114334;28;20047;-69
2022/03/27 05:43:36;;;;;;;3.92;2.08;;;14.90;46.80;;;;;;5132635;28;20398;-69
2022/03/27 05:46:02;;;;;;;3.33;1.73;;;14.90;46.70;;;;;;5132504;28;20050;-69
2022/03/27 05:48:28;;;;;;;3.53;2.10;;;14.90;46.80;;;;;;5114098;28;20046;-68
2022/03/27 05:50:54;;;;;;;3.88;2.05;;;14.80;46.80;;;;;;5114269;28;20031;-67
2022/03/27 05:53:20;;;;;;;3.75;2.30;;;14.90;46.80;;;;;;5114287;28;20054;-69
2022/03/27 05:55:47;;;;;;;2.28;1.63;;;14.80;46.70;;;;;;5114087;28;20046;-67
2022/03/27 05:58:13;;;;;;;3.67;1.90;;;14.80;46.70;;;;;;5132469;28;20118;-68
2022/03/27 06:00:40;;;;;;;2.80;1.48;;;14.90;46.80;;;;;;5134381;27;20035;-69
2022/03/27 06:03:06;;;;;;;2.50;1.58;;;14.80;46.70;;;;;;5117799;27;20093;-66
2022/03/27 06:05:31;;;;;;;3.72;2.10;;;14.80;46.70;;;;;;5117797;27;20051;-68
2022/03/27 06:07:58;;;;;;;2.35;1.15;;;14.80;46.70;;;;;;5117819;27;20064;-68
2022/03/27 06:10:28;;;;;;;2.58;1.38;;;14.90;46.70;;;;;;5118004;27;20043;-68
2022/03/27 06:12:55;;;;;;;3.00;1.52;;;14.80;46.70;;;;;;5117990;27;20054;-66
2022/03/27 06:15:21;;;;;;;3.15;1.67;;;14.80;46.70;;;;;;5117510;27;20615;-69
2022/03/27 06:17:49;;;;;;;3.38;1.15;;;14.80;46.70;;;;;;5117698;27;20121;-68
2022/03/27 06:20:17;;;;;;;1.85;1.15;;;14.80;46.70;;;;;;5128316;27;20113;-69
2022/03/27 06:22:44;;;;;;;3.28;1.80;;;14.90;46.70;;;;;;5156776;27;20046;-69
2022/03/27 06:25:12;;;;;;;2.83;1.27;;;14.90;46.70;;;;;;5156779;27;20125;-66
2022/03/27 06:27:41;;;;;;;2.38;1.33;;;14.90;46.70;;;;;;5155357;27;20537;-69
2022/03/27 06:30:10;;;;;;;3.67;1.50;;;14.80;46.70;;;;;;5155238;27;20042;-69
2022/03/27 06:32:36;;;;;;;2.80;1.80;;;14.90;46.70;;;;;;5155397;27;20053;-68
2022/03/27 06:35:04;;;;;;;3.95;1.35;;;14.90;46.70;;;;;;5155062;27;20038;-69
2022/03/27 06:37:31;;;;;;;3.20;1.65;;;14.80;46.60;;;;;;5155075;27;20477;-68
2022/03/27 06:39:56;;;;;;;3.22;1.58;;;14.80;46.70;;;;;;5155041;27;20031;-68
2022/03/27 06:42:26;;;;;;;2.13;1.23;;;14.80;46.70;;;;;;5156320;27;20038;-68
2022/03/27 06:44:54;;;;;;;4.07;1.25;;;14.80;46.70;;;;;;5155233;27;20051;-66
2022/03/27 06:47:20;;;;;;;3.60;1.75;;;14.90;46.70;;;;;;5154891;27;20038;-68
2022/03/27 06:49:46;;;;;;;3.20;1.60;;;14.90;46.60;;;;;;5154224;27;20117;-66
2022/03/27 06:52:12;;;;;;;3.53;1.40;;;14.90;46.60;;;;;;5156016;27;20439;-66
2022/03/27 06:54:38;;;;;;;3.88;1.55;;;14.90;46.60;;;;;;5154789;27;20075;-66
2022/03/27 06:57:04;;;;;;;3.10;1.20;;;14.90;46.60;;;;;;5154766;27;20031;-69
2022/03/27 07:03:01;;;;;;;1.85;1.20;;;14.90;46.60;;;;;;5154989;27;20046;-66
2022/03/27 07:05:05;;;;;;;2.58;1.17;;;14.90;46.50;;;;;;5155668;27;20047;-68
2022/03/27 07:07:31;;;;;;;3.20;0.88;;;15.00;46.40;;;;;;5154764;27;20034;-68
2022/03/27 07:09:57;;;;;;;2.33;1.23;;;15.00;46.30;;;;;;5154787;27;20508;-69
2022/03/27 07:12:24;;;;;;;3.42;1.25;;;15.10;46.20;;;;;;5154252;27;20042;-68
2022/03/27 07:14:51;;;;;;;3.05;1.40;;;15.10;46.10;;;;;;5154017;27;20046;-66
2022/03/27 07:17:18;;;;;;;2.88;1.20;;;15.10;46.10;;;;;;5154525;27;20082;-69
2022/03/27 07:19:45;;;;;;;3.08;1.73;;;15.10;46.10;;;;;;5155546;27;20362;-69
2022/03/27 07:22:11;;;;;;;2.65;1.17;;;15.10;46.10;;;;;;5155624;27;20629;-69
2022/03/27 07:24:37;;;;;;;4.10;1.40;;;15.10;46.00;;;;;;5154456;27;20182;-69
2022/03/27 07:27:03;;;;;;;3.30;1.35;;;15.20;46.10;;;;;;5155223;27;20585;-66
2022/03/27 07:29:35;;;;;;;4.38;1.65;;;15.10;46.10;;;;;;5154489;27;20517;-71
2022/03/27 07:32:01;;;;;;;3.08;1.10;;;15.10;46.10;;;;;;5154117;27;20098;-69
2022/03/27 07:34:27;;;;;;;4.07;1.40;;;15.10;46.10;;;;;;5153928;27;20042;-68
2022/03/27 07:36:53;;;;;;;3.90;1.30;;;15.10;46.10;;;;;;5154119;27;20477;-69
2022/03/27 07:39:19;;;;;;;4.53;1.40;;;15.10;46.10;;;;;;5155066;27;20031;-69
2022/03/27 07:41:47;;;;;;;4.15;1.73;;;15.10;46.10;;;;;;5154068;27;20064;-69
2022/03/27 07:44:13;;;;;;;4.07;1.30;;;15.10;46.20;;;;;;5155001;27;20482;-69
2022/03/27 07:46:40;;;;;;;2.92;1.55;;;15.10;46.10;;;;;;5154022;27;20082;-69
2022/03/27 07:49:06;;;;;;;2.88;0.93;;;15.10;46.10;;;;;;5153865;27;20042;-67
2022/03/27 07:51:35;;;;;;;2.25;1.33;;;15.10;46.10;;;;;;5153699;27;20594;-69
2022/03/27 07:54:01;;;;;;;2.15;1.20;;;15.10;46.10;;;;;;5153505;27;20054;-69
2022/03/27 07:56:29;;;;;;;4.32;1.27;;;15.10;46.10;;;;;;5153558;27;20043;-69
2022/03/27 07:58:55;;;;;;;3.55;1.42;;;15.10;46.10;;;;;;5153364;27;20031;-68
2022/03/27 08:01:22;;;;;;;2.15;1.08;;;15.10;46.10;;;;;;5154983;27;20035;-68
2022/03/27 08:03:49;;;;;;;2.85;1.50;;;15.20;46.00;;;;;;5153691;27;20047;-69
2022/03/27 08:06:15;;;;;;;4.18;1.40;;;15.20;46.00;;;;;;5153335;27;20118;-69
2022/03/27 08:08:43;;;;;;;3.10;1.15;;;15.20;45.90;;;;;;5153455;27;20070;-69
2022/03/27 08:11:09;;;;;;;3.30;1.70;;;15.20;45.90;;;;;;5153453;27;20162;-69
2022/03/27 08:13:35;;;;;;;3.38;1.08;;;15.20;45.80;;;;;;5152943;27;20038;-66
2022/03/27 08:16:01;;;;;;;3.75;1.48;;;15.20;45.80;;;;;;5153049;27;20043;-69
2022/03/27 08:18:27;;;;;;;3.13;1.30;;;15.30;45.70;;;;;;5153118;27;20046;-69
2022/03/27 08:20:53;;;;;;;4.28;1.52;;;15.30;45.70;;;;;;5153292;27;20077;-68
2022/03/27 08:23:22;;;;;;;5.70;1.52;;;15.30;45.70;;;;;;5153876;27;20034;-68
2022/03/27 08:28:33;;;;;;;3.17;1.10;;;15.30;45.70;;;;;;5153033;27;20046;-69
2022/03/27 08:30:59;;;;;;;4.97;1.00;;;15.30;45.70;;;;;;5152883;27;20083;-69
2022/03/27 08:33:24;;;;;;;4.50;1.48;;;15.30;45.70;;;;;;5153146;27;20084;-67
2022/03/27 08:35:50;;;;;;;4.72;1.40;;;15.30;45.70;;;;;;5153101;27;20478;-69
2022/03/27 08:38:16;;;;;;;4.63;1.88;;;15.30;45.70;;;;;;5152803;27;20050;-69
2022/03/27 08:40:47;;;;;;;3.30;1.48;;;15.30;45.70;;;;;;5153895;27;20058;-69
2022/03/27 08:43:15;;;;;;;6.05;1.27;;;15.30;45.70;;;;;;5152932;27;20065;-69
2022/03/27 08:45:42;;;;;;;5.88;1.88;;;15.30;45.70;;;;;;5152962;27;20043;-69
2022/03/27 08:48:08;;;;;;;4.22;1.33;;;15.30;45.80;;;;;;5152916;27;20047;-69
2022/03/27 08:50:58;;;;;;;5.20;1.52;;;15.30;45.70;;;;;;5152535;27;20043;-69
2022/03/27 08:53:30;;;;;;;4.88;2.17;;;15.30;45.70;;;;;;5152377;27;20041;-66
2022/03/27 08:56:06;;;;;;;5.35;1.70;;;15.30;45.70;;;;;;5135187;27;20039;-68
2022/03/27 08:58:35;;;;;;;4.97;0.88;;;15.30;45.70;;;;;;5152789;27;20038;-69
2022/03/27 09:01:04;;;;;;;6.18;1.38;;;15.30;45.70;;;;;;5152672;27;20147;-66
2022/03/27 09:03:30;;;;;;;5.75;1.83;;;15.30;45.70;;;;;;5153622;27;20035;-66
2022/03/27 09:05:56;;;;;;;3.53;1.17;;;15.30;45.70;;;;;;5152388;27;20042;-69
2022/03/27 09:08:22;;;;;;;5.30;1.52;;;15.30;45.60;;;;;;5152608;27;20091;-68
2022/03/27 09:10:48;;;;;;;6.20;1.70;;;15.30;45.60;;;;;;5152360;27;20447;-69
2022/03/27 09:13:16;;;;;;;5.50;1.25;;;15.30;45.60;;;;;;5153494;27;20030;-66
2022/03/27 09:15:43;;;;;;;5.20;1.88;;;15.30;45.60;;;;;;5152077;27;20054;-69
2022/03/27 09:18:12;;;;;;;3.53;1.08;;;15.30;45.60;;;;;;5152154;27;20107;-69
2022/03/27 09:20:48;;;;;;;5.57;1.52;;;15.30;45.60;;;;;;5153576;27;20034;-69
2022/03/27 09:26:01;;;;;;;6.75;1.85;;;15.30;45.70;;;;;;5152388;27;1178657;-68
2022/03/27 09:36:42;;;;;;;5.13;1.90;;;15.30;45.70;;;;;;5089425;27;20787;-69
2022/03/27 09:42:03;;;;;;;8.35;2.00;;;15.30;45.70;;;;;;5130346;27;20415;-70
2022/03/27 09:47:11;;;;;;;5.20;1.83;;;15.30;45.70;;;;;;5130459;27;20402;-70
2022/03/27 09:49:42;;;;;;;5.72;2.00;;;15.30;45.70;;;;;;5129187;28;20551;-71
2022/03/27 09:55:07;;;;;;;6.60;1.73;;;15.30;45.60;;;;;;5130386;27;20387;-69
2022/03/27 09:57:41;;;;;;;6.65;1.50;;;15.40;45.50;;;;;;5130578;27;20047;-70
2022/03/27 10:00:22;;;;;;;4.78;1.30;;;15.50;45.40;;;;;;5146449;27;20040;-70
2022/03/27 10:02:49;;;;;;;4.28;1.38;;;15.60;45.40;;;;;;5129245;28;20031;-70
2022/03/27 10:05:17;;;;;;;7.28;1.85;;;15.60;45.20;;;;;;5146335;27;20352;-70
2022/03/27 10:07:47;;;;;;;8.35;1.83;;;15.70;45.10;;;;;;5129115;28;20061;-70
2022/03/27 10:10:22;;;;;;;6.28;1.55;;;15.70;44.90;;;;;;5128851;28;20123;-66
2022/03/27 10:12:51;;;;;;;5.70;1.77;;;15.80;44.80;;;;;;5128619;28;20505;-66
2022/03/27 10:15:19;;;;;;;6.78;1.70;;;15.90;44.60;;;;;;5128616;28;20107;-69
2022/03/27 10:17:48;;;;;;;4.32;1.80;;;16.00;44.50;;;;;;5145952;27;20051;-69
2022/03/27 10:20:16;;;;;;;6.25;1.63;;;16.00;45.00;;;;;;5127986;28;20498;-69
2022/03/27 10:25:30;;;;;;;5.78;2.38;;;16.20;44.10;;;;;;5130174;27;20349;-70
2022/03/27 10:27:56;;;;;;;3.50;1.17;;;16.20;43.90;;;;;;5129033;28;20063;-69
2022/03/27 10:30:24;;;;;;;6.78;1.10;;;16.30;43.90;;;;;;5129203;28;20101;-69
2022/03/27 10:32:50;;;;;;;5.35;1.40;;;16.30;43.70;;;;;;5129269;28;20109;-69
2022/03/27 10:43:49;;;;;;;5.40;1.73;;;16.40;43.60;;;;;;5130534;27;20132;-70
2022/03/27 10:46:19;;;;;;;8.05;2.25;;;16.50;43.20;;;;;;5129136;28;20463;-70
2022/03/27 10:48:45;;;;;;;5.88;1.60;;;16.50;43.10;;;;;;5129175;28;20509;-66
2022/03/27 10:51:33;;;;;;;5.53;1.63;;;16.60;43.10;;;;;;5128898;28;20050;-70
2022/03/27 10:56:43;;;;;;;6.45;1.88;;;16.60;43.00;;;;;;5130346;27;20913;-70
2022/03/27 11:01:55;;;;;;;4.88;1.25;;;16.60;42.90;;;;;;5130282;27;20366;-69
2022/03/27 11:04:35;;;;;;;4.57;1.77;;;16.70;42.90;;;;;;5129013;28;20085;-70
2022/03/27 11:09:54;;;;;;;7.45;1.63;;;16.60;42.80;;;;;;5152409;27;1176314;-70
2022/03/27 11:15:05;;;;;;;3.40;1.08;;;16.60;42.80;;;;;;5130361;27;20765;-69
2022/03/27 11:17:50;;;;;;;6.22;1.63;;;16.60;42.80;;;;;;5128857;28;20483;-70
2022/03/27 11:23:04;;;;;;;7.18;1.38;;;16.60;42.80;;;;;;5153098;27;1160140;-70
2022/03/27 11:28:15;;;;;;;4.72;1.60;;;16.50;42.80;;;;;;5130332;27;20796;-70
2022/03/27 11:33:31;;;;;;;4.22;1.02;;;16.50;42.90;;;;;;5130382;27;20370;-69
2022/03/27 11:41:42;;;;;;;6.60;1.80;;;16.50;42.90;;;;;;5130318;27;20403;-70
2022/03/27 11:47:22;;;;;;;6.22;1.30;;;16.50;42.90;;;;;;5128697;28;20076;-70
2022/03/27 11:49:50;;;;;;;5.45;1.63;;;16.50;42.90;;;;;;5128644;28;20432;-70
2022/03/27 11:52:19;;;;;;;3.80;0.98;;;16.50;42.90;;;;;;5129065;28;20446;-70
2022/03/27 11:54:47;;;;;;;6.38;1.70;;;16.50;42.90;;;;;;5128963;28;20051;-70
2022/03/27 11:57:13;;;;;;;5.68;1.38;;;16.50;42.80;;;;;;5129014;28;20040;-67
2022/03/27 11:59:46;;;;;;;7.13;1.00;;;16.50;42.80;;;;;;5128865;28;20039;-70
2022/03/27 12:02:14;;;;;;;4.00;0.98;;;16.50;42.80;;;;;;5129871;28;20035;-70
2022/03/27 12:05:01;;;;;;;6.50;1.65;;;16.50;42.80;;;;;;5129917;28;20035;-70
2022/03/27 12:07:56;;;;;;;5.20;1.15;;;16.50;42.80;;;;;;5128710;28;20078;-70
2022/03/27 12:10:26;;;;;;;6.82;1.15;;;16.50;42.70;;;;;;5129768;27;20441;-70
2022/03/27 12:12:57;;;;;;;3.85;1.23;;;16.50;42.80;;;;;;5129728;28;20035;-70
2022/03/27 12:15:36;;;;;;;6.60;1.40;;;16.50;42.70;;;;;;5128668;28;20377;-70
2022/03/27 12:18:03;;;;;;;6.70;1.30;;;16.50;42.70;;;;;;5128448;28;20127;-70
2022/03/27 12:20:29;;;;;;;6.07;1.45;;;16.50;42.60;;;;;;5128287;28;20041;-70
2022/03/27 12:22:56;;;;;;;4.40;1.13;;;16.50;42.60;;;;;;5128252;28;20071;-70
2022/03/27 12:25:25;;;;;;;7.32;1.67;;;16.50;42.50;;;;;;5128177;27;20045;-70
2022/03/27 12:30:53;;;;;;;5.85;1.42;;;16.60;43.40;;;;;;5129654;28;20058;-70
2022/03/27 12:33:21;;;;;;;6.20;0.95;;;16.50;42.50;;;;;;5129348;28;20035;-70
2022/03/27 12:36:04;;;;;;;5.03;1.25;;;16.60;42.50;;;;;;5128243;28;20046;-70
2022/03/27 12:38:32;;;;;;;7.88;1.55;;;16.60;42.40;;;;;;5128172;27;20515;-66
2022/03/27 12:40:58;;;;;;;4.13;1.27;;;16.60;42.40;;;;;;5127555;28;20062;-70
2022/03/27 12:43:23;;;;;;;6.75;1.70;;;16.60;42.40;;;;;;5127699;28;20043;-70
2022/03/27 12:45:49;;;;;;;6.47;1.73;;;16.60;42.30;;;;;;5127935;28;20054;-67
2022/03/27 12:48:18;;;;;;;5.50;1.67;;;16.60;42.30;;;;;;5128002;28;20099;-70
2022/03/27 12:50:47;;;;;;;4.95;1.38;;;16.60;42.30;;;;;;5126504;28;20051;-70
2022/03/27 12:53:26;;;;;;;6.38;1.48;;;16.60;42.30;;;;;;5114024;28;20048;-70
2022/03/27 12:55:55;;;;;;;6.75;1.55;;;16.60;42.30;;;;;;5113106;28;20516;-70
2022/03/27 12:58:34;;;;;;;5.00;1.65;;;16.60;42.30;;;;;;5114193;28;20034;-70
2022/03/27 13:01:08;;;;;;;5.50;1.45;;;16.70;42.30;;;;;;5113692;28;20557;-70
2022/03/27 13:03:35;;;;;;;6.40;1.55;;;16.60;42.10;;;;;;5114035;28;20067;-70
2022/03/27 13:06:04;;;;;;;6.57;1.45;;;16.60;42.10;;;;;;5113701;28;20039;-66
2022/03/27 13:08:39;;;;;;;5.88;1.63;;;16.60;42.10;;;;;;5113758;28;20085;-70
2022/03/27 13:11:10;;;;;;;5.78;1.55;;;16.70;42.10;;;;;;5113913;28;20115;-66
2022/03/27 13:13:45;;;;;;;5.70;1.15;;;16.60;42.00;;;;;;5115148;28;20043;-69
2022/03/27 13:21:42;;;;;;;6.47;1.70;;;16.70;42.00;;;;;;5152877;27;1162274;-70
2022/03/27 13:24:11;;;;;;;6.32;1.30;;;16.70;42.00;;;;;;5153078;27;20038;-66
2022/03/27 13:26:39;;;;;;;7.68;1.15;;;16.70;42.00;;;;;;5153233;27;20377;-70
2022/03/27 13:29:06;;;;;;;6.50;1.90;;;16.70;41.90;;;;;;5153043;27;20501;-71
2022/03/27 13:31:34;;;;;;;8.63;1.85;;;16.70;42.00;;;;;;5153250;27;20084;-66
2022/03/27 13:34:02;;;;;;;6.47;1.52;;;16.70;42.10;;;;;;5153000;27;20046;-66
2022/03/27 13:36:29;;;;;;;6.95;1.67;;;16.70;42.10;;;;;;5153062;27;20038;-70
2022/03/27 13:38:54;;;;;;;5.68;1.38;;;16.70;42.10;;;;;;5153114;27;20069;-69
2022/03/27 13:44:06;;;;;;;4.60;1.08;;;16.70;42.00;;;;;;5171272;27;20045;-69
2022/03/27 13:46:32;;;;;;;5.50;1.63;;;16.70;42.00;;;;;;5152648;27;20030;-70
2022/03/27 13:48:58;;;;;;;4.60;1.15;;;16.80;42.00;;;;;;5152913;27;20041;-69
2022/03/27 13:51:24;;;;;;;5.68;1.58;;;16.80;41.90;;;;;;5152539;27;20034;-70
2022/03/27 13:53:49;;;;;;;8.32;1.38;;;16.80;41.90;;;;;;5152585;27;20061;-69
2022/03/27 13:56:15;;;;;;;4.53;0.80;;;16.80;41.90;;;;;;5152528;27;20031;-69
2022/03/27 13:58:41;;;;;;;6.40;1.38;;;16.80;41.90;;;;;;5152807;27;20038;-71
2022/03/27 14:01:06;;;;;;;6.95;1.60;;;16.80;41.90;;;;;;5152366;27;20042;-68
2022/03/27 14:03:32;;;;;;;10.27;1.77;;;16.80;41.90;;;;;;5152400;27;20046;-66
2022/03/27 14:05:58;;;;;;;5.47;1.25;;;16.80;41.90;;;;;;5152169;27;20118;-70